createdAt,value
2017-06-27T00:00:16.253Z,940.58
2017-06-27T00:00:44.267Z,940.57
2017-06-27T00:01:12.472Z,940.57
2017-06-27T00:01:40.623Z,940.58
2017-06-27T00:02:08.670Z,940.59
2017-06-27T00:02:36.821Z,940.61
2017-06-27T00:03:04.929Z,940.61
2017-06-27T00:03:33.077Z,940.67
2017-06-27T00:04:01.178Z,940.59
2017-06-27T00:04:29.319Z,940.62
2017-06-27T00:04:57.594Z,940.62
2017-06-27T00:05:25.641Z,940.59
2017-06-27T00:05:53.674Z,940.63
2017-06-27T00:06:21.645Z,940.61
2017-06-27T00:06:49.795Z,940.64
2017-06-27T00:07:17.955Z,940.64
2017-06-27T00:07:46.100Z,940.66
2017-06-27T00:08:14.152Z,940.64
2017-06-27T00:08:42.191Z,940.64
2017-06-27T00:09:10.137Z,940.65
2017-06-27T00:09:38.271Z,940.68
2017-06-27T00:10:06.412Z,940.63
2017-06-27T00:10:34.580Z,940.67
2017-06-27T00:11:02.630Z,940.69
2017-06-27T00:11:30.690Z,940.65
2017-06-27T00:11:58.846Z,940.67
2017-06-27T00:12:26.940Z,940.67
2017-06-27T00:12:55.081Z,940.69
2017-06-27T00:13:23.297Z,940.7
2017-06-27T00:13:51.410Z,940.69
2017-06-27T00:14:19.538Z,940.7
2017-06-27T00:14:47.663Z,940.7
2017-06-27T00:15:15.797Z,940.7
2017-06-27T00:15:43.949Z,940.69
2017-06-27T00:16:12.008Z,940.71
2017-06-27T00:16:40.067Z,940.71
2017-06-27T00:17:08.108Z,940.7
2017-06-27T00:17:36.284Z,940.71
2017-06-27T00:18:04.352Z,940.69
2017-06-27T00:18:32.517Z,940.74
2017-06-27T00:19:00.581Z,940.72
2017-06-27T00:19:28.611Z,940.7
2017-06-27T00:19:56.741Z,940.7
2017-06-27T00:20:24.889Z,940.71
2017-06-27T00:20:52.946Z,940.71
2017-06-27T00:21:21.075Z,940.72
2017-06-27T00:21:49.121Z,940.71
2017-06-27T00:22:17.240Z,940.74
2017-06-27T00:22:45.342Z,940.74
2017-06-27T00:23:13.490Z,940.69
2017-06-27T00:23:41.625Z,940.72
2017-06-27T00:24:09.784Z,940.73
2017-06-27T00:24:37.924Z,940.73
2017-06-27T00:25:06.080Z,940.72
2017-06-27T00:25:34.197Z,940.73
2017-06-27T00:26:02.149Z,940.73
2017-06-27T00:26:30.293Z,940.76
2017-06-27T00:26:58.357Z,940.73
2017-06-27T00:27:26.338Z,940.77
2017-06-27T00:27:54.469Z,940.78
2017-06-27T00:28:22.640Z,940.76
2017-06-27T00:28:50.698Z,940.75
2017-06-27T00:29:18.848Z,940.77
2017-06-27T00:29:47.015Z,940.72
2017-06-27T00:30:15.166Z,940.75
2017-06-27T00:30:43.212Z,940.74
2017-06-27T00:31:11.482Z,940.76
2017-06-27T00:31:39.509Z,940.74
2017-06-27T00:32:07.537Z,940.76
2017-06-27T00:32:35.671Z,940.76
2017-06-27T00:33:03.820Z,940.77
2017-06-27T00:33:31.973Z,940.76
2017-06-27T00:34:00.099Z,940.77
2017-06-27T00:34:28.247Z,940.77
2017-06-27T00:34:56.395Z,940.77
2017-06-27T00:35:24.531Z,940.77
2017-06-27T00:35:52.687Z,940.79
2017-06-27T00:36:21.176Z,940.8
2017-06-27T00:36:49.227Z,940.78
2017-06-27T00:37:17.366Z,940.77
2017-06-27T00:37:45.504Z,940.8
2017-06-27T00:38:13.659Z,940.79
2017-06-27T00:38:41.795Z,940.79
2017-06-27T00:39:09.836Z,940.81
2017-06-27T00:39:37.960Z,940.84
2017-06-27T00:40:06.128Z,940.82
2017-06-27T00:40:34.132Z,940.85
2017-06-27T00:41:02.186Z,940.82
2017-06-27T00:41:30.230Z,940.85
2017-06-27T00:41:58.410Z,940.9
2017-06-27T00:42:26.465Z,940.93
2017-06-27T00:42:54.609Z,940.95
2017-06-27T00:43:22.767Z,940.95
2017-06-27T00:43:50.929Z,940.96
2017-06-27T00:44:19.069Z,940.97
2017-06-27T00:44:47.186Z,940.97
2017-06-27T00:45:15.346Z,940.97
2017-06-27T00:45:43.489Z,940.99
2017-06-27T00:46:11.601Z,941
2017-06-27T00:46:39.747Z,940.99
2017-06-27T00:47:07.920Z,941.03
2017-06-27T00:47:36.069Z,941.01
2017-06-27T00:48:04.223Z,941.02
2017-06-27T00:48:32.396Z,941
2017-06-27T00:49:00.607Z,941.02
2017-06-27T00:49:28.761Z,941.01
2017-06-27T00:49:56.890Z,941.03
2017-06-27T00:50:25.030Z,941
2017-06-27T00:50:53.117Z,941.05
2017-06-27T00:51:21.161Z,940.99
2017-06-27T00:51:49.315Z,941.02
2017-06-27T00:52:17.477Z,941.01
2017-06-27T00:52:45.611Z,941.03
2017-06-27T00:53:13.657Z,941.03
2017-06-27T00:53:41.831Z,941.07
2017-06-27T00:54:09.955Z,940.99
2017-06-27T00:54:37.988Z,941.06
2017-06-27T00:55:06.001Z,941.01
2017-06-27T00:55:34.120Z,941.03
2017-06-27T00:56:02.236Z,941.03
2017-06-27T00:56:30.365Z,941.02
2017-06-27T00:56:58.323Z,941
2017-06-27T00:57:26.301Z,941.01
2017-06-27T00:57:54.331Z,941.02
2017-06-27T00:58:22.476Z,941.03
2017-06-27T00:58:50.632Z,941.02
2017-06-27T00:59:18.771Z,941.05
2017-06-27T00:59:46.905Z,941.04
2017-06-27T01:00:15.046Z,941.04
2017-06-27T01:00:43.074Z,941.03
2017-06-27T01:01:11.227Z,941.03
2017-06-27T01:01:39.257Z,941.05
2017-06-27T01:02:07.288Z,941.07
2017-06-27T01:02:35.459Z,941.08
2017-06-27T01:03:03.600Z,941.06
2017-06-27T01:03:31.573Z,941.06
2017-06-27T01:03:59.716Z,941.06
2017-06-27T01:04:27.747Z,941.04
2017-06-27T01:04:55.897Z,941.06
2017-06-27T01:05:24.027Z,941.05
2017-06-27T01:05:52.168Z,941.02
2017-06-27T01:06:20.205Z,941.02
2017-06-27T01:06:48.346Z,941.01
2017-06-27T01:07:16.531Z,941.03
2017-06-27T01:07:44.805Z,941.05
2017-06-27T01:08:12.849Z,941.03
2017-06-27T01:08:40.983Z,941.08
2017-06-27T01:09:09.040Z,941.06
2017-06-27T01:09:37.187Z,941.08
2017-06-27T01:10:05.151Z,941.05
2017-06-27T01:10:33.294Z,941.01
2017-06-27T01:11:01.238Z,941.07
2017-06-27T01:11:29.281Z,941.04
2017-06-27T01:11:57.417Z,941.1
2017-06-27T01:12:25.445Z,941.1
2017-06-27T01:12:53.621Z,941.05
2017-06-27T01:13:21.659Z,941.1
2017-06-27T01:13:49.790Z,941.07
2017-06-27T01:14:17.960Z,941.13
2017-06-27T01:14:46.080Z,941.13
2017-06-27T01:15:14.120Z,941.1
2017-06-27T01:15:42.239Z,941.09
2017-06-27T01:16:10.337Z,941.13
2017-06-27T01:16:38.531Z,941.09
2017-06-27T01:17:06.564Z,941.11
2017-06-27T01:17:34.696Z,941.11
2017-06-27T01:18:02.736Z,941.12
2017-06-27T01:18:30.904Z,941.1
2017-06-27T01:18:58.946Z,941.08
2017-06-27T01:19:26.966Z,941.06
2017-06-27T01:19:55.111Z,941.08
2017-06-27T01:20:23.258Z,941.12
2017-06-27T01:20:51.279Z,941.11
2017-06-27T01:21:19.448Z,941.07
2017-06-27T01:21:47.498Z,941.07
2017-06-27T01:22:15.639Z,941.09
2017-06-27T01:22:43.799Z,941.05
2017-06-27T01:23:11.848Z,941.09
2017-06-27T01:23:39.883Z,941.06
2017-06-27T01:24:07.985Z,941.07
2017-06-27T01:24:36.019Z,941.07
2017-06-27T01:25:04.142Z,941.08
2017-06-27T01:25:32.210Z,941.09
2017-06-27T01:26:00.324Z,941.11
2017-06-27T01:26:28.372Z,941.08
2017-06-27T01:26:56.482Z,941.11
2017-06-27T01:27:24.649Z,941.11
2017-06-27T01:27:52.751Z,941.1
2017-06-27T01:28:20.789Z,941.08
2017-06-27T01:28:48.948Z,941.13
2017-06-27T01:29:16.977Z,941.12
2017-06-27T01:29:45.101Z,941.12
2017-06-27T01:30:13.225Z,941.13
2017-06-27T01:30:41.322Z,941.14
2017-06-27T01:31:09.472Z,941.11
2017-06-27T01:31:37.585Z,941.13
2017-06-27T01:32:05.733Z,941.11
2017-06-27T01:32:34.016Z,941.12
2017-06-27T01:33:02.107Z,941.13
2017-06-27T01:33:30.267Z,941.13
2017-06-27T01:33:58.416Z,941.13
2017-06-27T01:34:26.487Z,941.1
2017-06-27T01:34:54.620Z,941.09
2017-06-27T01:35:22.759Z,941.11
2017-06-27T01:35:50.803Z,941.11
2017-06-27T01:36:18.881Z,941.11
2017-06-27T01:36:47.040Z,941.1
2017-06-27T01:37:15.175Z,941.12
2017-06-27T01:37:43.302Z,941.11
2017-06-27T01:38:11.338Z,941.06
2017-06-27T01:38:39.469Z,941.09
2017-06-27T01:39:07.507Z,941.07
2017-06-27T01:39:35.633Z,941.06
2017-06-27T01:40:03.691Z,941.08
2017-06-27T01:40:31.741Z,941.01
2017-06-27T01:40:59.875Z,941.03
2017-06-27T01:41:28.020Z,941.04
2017-06-27T01:41:56.065Z,941.05
2017-06-27T01:42:24.264Z,941.04
2017-06-27T01:42:52.401Z,941.02
2017-06-27T01:43:20.532Z,941.03
2017-06-27T01:43:48.560Z,941.03
2017-06-27T01:44:16.620Z,941.03
2017-06-27T01:44:44.763Z,941.04
2017-06-27T01:45:12.803Z,941
2017-06-27T01:45:40.959Z,940.98
2017-06-27T01:46:09.093Z,940.98
2017-06-27T01:46:37.218Z,940.98
2017-06-27T01:47:05.343Z,940.99
2017-06-27T01:47:33.506Z,940.93
2017-06-27T01:48:01.453Z,940.96
2017-06-27T01:48:29.415Z,940.97
2017-06-27T01:48:57.464Z,940.99
2017-06-27T01:49:25.626Z,940.97
2017-06-27T01:49:53.693Z,940.94
2017-06-27T01:50:21.719Z,940.97
2017-06-27T01:50:49.845Z,940.97
2017-06-27T01:51:17.802Z,940.92
2017-06-27T01:51:45.946Z,940.95
2017-06-27T01:52:13.961Z,940.92
2017-06-27T01:52:42.091Z,940.93
2017-06-27T01:53:10.203Z,940.9
2017-06-27T01:53:38.342Z,940.88
2017-06-27T01:54:06.500Z,940.92
2017-06-27T01:54:34.635Z,940.91
2017-06-27T01:55:02.715Z,940.89
2017-06-27T01:55:30.861Z,940.89
2017-06-27T01:55:58.923Z,940.86
2017-06-27T01:56:27.058Z,940.89
2017-06-27T01:56:55.165Z,940.91
2017-06-27T01:57:23.303Z,940.85
2017-06-27T01:57:51.432Z,940.84
2017-06-27T01:58:19.597Z,940.86
2017-06-27T01:58:47.650Z,940.85
2017-06-27T01:59:15.772Z,940.8
2017-06-27T01:59:43.894Z,940.8
2017-06-27T02:00:12.058Z,940.82
2017-06-27T02:00:40.122Z,940.78
2017-06-27T02:01:08.267Z,940.81
2017-06-27T02:01:36.415Z,940.78
2017-06-27T02:02:04.557Z,940.8
2017-06-27T02:02:32.652Z,940.8
2017-06-27T02:03:00.714Z,940.77
2017-06-27T02:03:28.870Z,940.8
2017-06-27T02:03:57.016Z,940.77
2017-06-27T02:04:25.135Z,940.8
2017-06-27T02:04:53.287Z,940.74
2017-06-27T02:05:21.438Z,940.8
2017-06-27T02:05:49.629Z,940.78
2017-06-27T02:06:17.812Z,940.77
2017-06-27T02:06:45.977Z,940.77
2017-06-27T02:07:14.191Z,940.77
2017-06-27T02:07:42.431Z,940.8
2017-06-27T02:08:10.592Z,940.79
2017-06-27T02:08:38.739Z,940.79
2017-06-27T02:09:06.670Z,940.78
2017-06-27T02:09:34.794Z,940.79
2017-06-27T02:10:02.919Z,940.76
2017-06-27T02:10:30.940Z,940.81
2017-06-27T02:10:59.089Z,940.76
2017-06-27T02:11:27.049Z,940.79
2017-06-27T02:11:55.168Z,940.75
2017-06-27T02:12:23.318Z,940.78
2017-06-27T02:12:51.465Z,940.76
2017-06-27T02:13:19.606Z,940.8
2017-06-27T02:13:47.754Z,940.79
2017-06-27T02:14:15.918Z,940.79
2017-06-27T02:14:44.065Z,940.78
2017-06-27T02:15:12.213Z,940.79
2017-06-27T02:15:40.360Z,940.8
2017-06-27T02:16:08.516Z,940.8
2017-06-27T02:16:36.552Z,940.79
2017-06-27T02:17:04.681Z,940.8
2017-06-27T02:17:32.784Z,940.76
2017-06-27T02:18:00.908Z,940.77
2017-06-27T02:18:28.950Z,940.73
2017-06-27T02:18:57.107Z,940.7
2017-06-27T02:19:25.070Z,940.77
2017-06-27T02:19:53.082Z,940.74
2017-06-27T02:20:21.209Z,940.73
2017-06-27T02:20:49.233Z,940.72
2017-06-27T02:21:17.372Z,940.71
2017-06-27T02:21:45.503Z,940.78
2017-06-27T02:22:13.627Z,940.74
2017-06-27T02:22:41.772Z,940.75
2017-06-27T02:23:09.885Z,940.73
2017-06-27T02:23:38.045Z,940.72
2017-06-27T02:24:06.183Z,940.75
2017-06-27T02:24:34.223Z,940.74
2017-06-27T02:25:02.273Z,940.73
2017-06-27T02:25:30.405Z,940.71
2017-06-27T02:25:58.555Z,940.74
2017-06-27T02:26:26.698Z,940.74
2017-06-27T02:26:54.715Z,940.74
2017-06-27T02:27:22.857Z,940.74
2017-06-27T02:27:51.004Z,940.72
2017-06-27T02:28:19.132Z,940.73
2017-06-27T02:28:47.274Z,940.72
2017-06-27T02:29:15.417Z,940.72
2017-06-27T02:29:43.549Z,940.69
2017-06-27T02:30:11.690Z,940.68
2017-06-27T02:30:39.825Z,940.66
2017-06-27T02:31:07.930Z,940.72
2017-06-27T02:31:35.945Z,940.67
2017-06-27T02:32:04.082Z,940.65
2017-06-27T02:32:32.126Z,940.66
2017-06-27T02:33:00.280Z,940.65
2017-06-27T02:33:28.414Z,940.67
2017-06-27T02:33:56.454Z,940.68
2017-06-27T02:34:24.609Z,940.66
2017-06-27T02:34:52.749Z,940.61
2017-06-27T02:35:20.866Z,940.65
2017-06-27T02:35:48.903Z,940.67
2017-06-27T02:36:17.041Z,940.61
2017-06-27T02:36:45.180Z,940.67
2017-06-27T02:37:13.313Z,940.63
2017-06-27T02:37:41.470Z,940.62
2017-06-27T02:38:09.598Z,940.65
2017-06-27T02:38:37.654Z,940.65
2017-06-27T02:39:05.805Z,940.61
2017-06-27T02:39:33.933Z,940.61
2017-06-27T02:40:02.054Z,940.62
2017-06-27T02:40:30.183Z,940.64
2017-06-27T02:40:58.325Z,940.63
2017-06-27T02:41:26.467Z,940.66
2017-06-27T02:41:54.503Z,940.62
2017-06-27T02:42:22.610Z,940.67
2017-06-27T02:42:50.774Z,940.63
2017-06-27T02:43:18.922Z,940.65
2017-06-27T02:43:46.875Z,940.64
2017-06-27T02:44:14.909Z,940.59
2017-06-27T02:44:43.037Z,940.61
2017-06-27T02:45:11.153Z,940.62
2017-06-27T02:45:39.318Z,940.63
2017-06-27T02:46:07.454Z,940.6
2017-06-27T02:46:35.576Z,940.59
2017-06-27T02:47:03.604Z,940.59
2017-06-27T02:47:31.706Z,940.62
2017-06-27T02:47:59.842Z,940.61
2017-06-27T02:48:27.997Z,940.62
2017-06-27T02:48:56.031Z,940.62
2017-06-27T02:49:24.049Z,940.63
2017-06-27T02:49:52.106Z,940.61
2017-06-27T02:50:20.042Z,940.63
2017-06-27T02:50:48.201Z,940.59
2017-06-27T02:51:16.347Z,940.6
2017-06-27T02:51:44.485Z,940.59
2017-06-27T02:52:12.627Z,940.59
2017-06-27T02:52:40.599Z,940.56
2017-06-27T02:53:08.540Z,940.56
2017-06-27T02:53:36.590Z,940.58
2017-06-27T02:54:04.732Z,940.56
2017-06-27T02:54:32.758Z,940.56
2017-06-27T02:55:00.912Z,940.57
2017-06-27T02:55:29.033Z,940.55
2017-06-27T02:55:57.173Z,940.56
2017-06-27T02:56:25.319Z,940.58
2017-06-27T02:56:53.471Z,940.6
2017-06-27T02:57:21.738Z,940.56
2017-06-27T02:57:49.861Z,940.55
2017-06-27T02:58:17.978Z,940.58
2017-06-27T02:58:46.020Z,940.57
2017-06-27T02:59:14.157Z,940.59
2017-06-27T02:59:42.259Z,940.55
2017-06-27T03:00:10.419Z,940.54
2017-06-27T03:00:38.547Z,940.56
2017-06-27T03:01:06.718Z,940.53
2017-06-27T03:01:34.855Z,940.53
2017-06-27T03:02:02.993Z,940.53
2017-06-27T03:02:31.133Z,940.51
2017-06-27T03:02:59.240Z,940.51
2017-06-27T03:03:27.379Z,940.51
2017-06-27T03:03:55.529Z,940.5
2017-06-27T03:04:23.605Z,940.53
2017-06-27T03:04:51.639Z,940.51
2017-06-27T03:05:19.769Z,940.51
2017-06-27T03:05:47.826Z,940.53
2017-06-27T03:06:15.939Z,940.52
2017-06-27T03:06:44.089Z,940.5
2017-06-27T03:07:11.961Z,940.53
2017-06-27T03:07:40.095Z,940.52
2017-06-27T03:08:08.140Z,940.5
2017-06-27T03:08:36.272Z,940.54
2017-06-27T03:09:04.430Z,940.55
2017-06-27T03:09:32.558Z,940.55
2017-06-27T03:10:00.689Z,940.54
2017-06-27T03:10:28.818Z,940.56
2017-06-27T03:10:56.962Z,940.55
2017-06-27T03:11:25.097Z,940.56
2017-06-27T03:11:53.201Z,940.53
2017-06-27T03:12:21.335Z,940.52
2017-06-27T03:12:49.486Z,940.54
2017-06-27T03:13:17.623Z,940.54
2017-06-27T03:13:45.732Z,940.53
2017-06-27T03:14:13.864Z,940.55
2017-06-27T03:14:42.016Z,940.57
2017-06-27T03:15:10.051Z,940.52
2017-06-27T03:15:38.192Z,940.57
2017-06-27T03:16:06.311Z,940.52
2017-06-27T03:16:34.456Z,940.56
2017-06-27T03:17:02.589Z,940.56
2017-06-27T03:17:30.731Z,940.57
2017-06-27T03:17:58.860Z,940.57
2017-06-27T03:18:27.010Z,940.61
2017-06-27T03:18:55.110Z,940.61
2017-06-27T03:19:23.248Z,940.66
2017-06-27T03:19:51.352Z,940.61
2017-06-27T03:20:19.489Z,940.64
2017-06-27T03:20:47.428Z,940.6
2017-06-27T03:21:15.658Z,940.62
2017-06-27T03:21:43.793Z,940.59
2017-06-27T03:22:11.952Z,940.61
2017-06-27T03:22:40.071Z,940.62
2017-06-27T03:23:08.188Z,940.56
2017-06-27T03:23:36.219Z,940.6
2017-06-27T03:24:04.346Z,940.64
2017-06-27T03:24:32.382Z,940.61
2017-06-27T03:25:00.506Z,940.62
2017-06-27T03:25:28.631Z,940.6
2017-06-27T03:25:56.680Z,940.62
2017-06-27T03:26:24.812Z,940.63
2017-06-27T03:26:52.938Z,940.64
2017-06-27T03:27:21.077Z,940.6
2017-06-27T03:27:49.202Z,940.62
2017-06-27T03:28:17.313Z,940.6
2017-06-27T03:28:45.436Z,940.59
2017-06-27T03:29:13.588Z,940.62
2017-06-27T03:29:41.637Z,940.63
2017-06-27T03:30:09.760Z,940.62
2017-06-27T03:30:37.873Z,940.62
2017-06-27T03:31:06.013Z,940.61
2017-06-27T03:31:34.116Z,940.57
2017-06-27T03:32:02.254Z,940.59
2017-06-27T03:32:30.300Z,940.6
2017-06-27T03:32:58.426Z,940.59
2017-06-27T03:33:26.578Z,940.6
2017-06-27T03:33:54.689Z,940.61
2017-06-27T03:34:22.806Z,940.6
2017-06-27T03:34:50.943Z,940.58
2017-06-27T03:35:19.048Z,940.59
2017-06-27T03:35:47.096Z,940.63
2017-06-27T03:36:15.228Z,940.61
2017-06-27T03:36:43.285Z,940.63
2017-06-27T03:37:11.400Z,940.61
2017-06-27T03:37:39.516Z,940.6
2017-06-27T03:38:07.557Z,940.59
2017-06-27T03:38:35.716Z,940.57
2017-06-27T03:39:03.864Z,940.56
2017-06-27T03:39:31.902Z,940.54
2017-06-27T03:40:00.030Z,940.57
2017-06-27T03:40:28.161Z,940.56
2017-06-27T03:40:56.292Z,940.52
2017-06-27T03:41:24.330Z,940.55
2017-06-27T03:41:52.456Z,940.52
2017-06-27T03:42:20.482Z,940.52
2017-06-27T03:42:48.511Z,940.52
2017-06-27T03:43:16.662Z,940.51
2017-06-27T03:43:44.787Z,940.52
2017-06-27T03:44:12.934Z,940.49
2017-06-27T03:44:41.051Z,940.49
2017-06-27T03:45:09.173Z,940.45
2017-06-27T03:45:37.286Z,940.47
2017-06-27T03:46:05.426Z,940.44
2017-06-27T03:46:33.576Z,940.47
2017-06-27T03:47:01.673Z,940.47
2017-06-27T03:47:29.841Z,940.5
2017-06-27T03:47:57.954Z,940.49
2017-06-27T03:48:26.088Z,940.45
2017-06-27T03:48:54.214Z,940.48
2017-06-27T03:49:22.364Z,940.48
2017-06-27T03:49:50.493Z,940.51
2017-06-27T03:50:18.594Z,940.44
2017-06-27T03:50:46.708Z,940.49
2017-06-27T03:51:14.815Z,940.47
2017-06-27T03:51:42.953Z,940.42
2017-06-27T03:52:11.093Z,940.47
2017-06-27T03:52:39.160Z,940.43
2017-06-27T03:53:07.174Z,940.39
2017-06-27T03:53:35.317Z,940.4
2017-06-27T03:54:03.441Z,940.37
2017-06-27T03:54:31.490Z,940.39
2017-06-27T03:54:59.521Z,940.39
2017-06-27T03:55:27.626Z,940.35
2017-06-27T03:55:55.762Z,940.37
2017-06-27T03:56:23.907Z,940.35
2017-06-27T03:56:51.949Z,940.35
2017-06-27T03:57:20.074Z,940.37
2017-06-27T03:57:48.216Z,940.34
2017-06-27T03:58:16.258Z,940.35
2017-06-27T03:58:44.310Z,940.32
2017-06-27T03:59:12.335Z,940.37
2017-06-27T03:59:40.470Z,940.38
2017-06-27T04:00:08.632Z,940.36
2017-06-27T04:00:36.663Z,940.38
2017-06-27T04:01:04.781Z,940.35
2017-06-27T04:01:32.922Z,940.37
2017-06-27T04:02:01.055Z,940.4
2017-06-27T04:02:29.111Z,940.33
2017-06-27T04:02:57.260Z,940.38
2017-06-27T04:03:25.280Z,940.38
2017-06-27T04:03:53.305Z,940.4
2017-06-27T04:04:21.453Z,940.4
2017-06-27T04:04:49.567Z,940.39
2017-06-27T04:05:17.623Z,940.39
2017-06-27T04:05:45.646Z,940.35
2017-06-27T04:06:13.771Z,940.38
2017-06-27T04:06:41.899Z,940.37
2017-06-27T04:07:10.044Z,940.36
2017-06-27T04:07:38.200Z,940.34
2017-06-27T04:08:06.336Z,940.39
2017-06-27T04:08:34.279Z,940.33
2017-06-27T04:09:02.421Z,940.37
2017-06-27T04:09:30.555Z,940.33
2017-06-27T04:09:58.732Z,940.36
2017-06-27T04:10:26.838Z,940.33
2017-06-27T04:10:54.772Z,940.33
2017-06-27T04:11:22.804Z,940.32
2017-06-27T04:11:50.914Z,940.35
2017-06-27T04:12:18.978Z,940.36
2017-06-27T04:12:47.041Z,940.32
2017-06-27T04:13:15.093Z,940.33
2017-06-27T04:13:43.241Z,940.34
2017-06-27T04:14:11.179Z,940.33
2017-06-27T04:14:39.217Z,940.33
2017-06-27T04:15:07.353Z,940.31
2017-06-27T04:15:35.524Z,940.34
2017-06-27T04:16:03.537Z,940.34
2017-06-27T04:16:31.652Z,940.4
2017-06-27T04:16:59.791Z,940.34
2017-06-27T04:17:27.851Z,940.36
2017-06-27T04:17:55.888Z,940.34
2017-06-27T04:18:24.036Z,940.33
2017-06-27T04:18:52.093Z,940.33
2017-06-27T04:19:20.216Z,940.3
2017-06-27T04:19:48.360Z,940.29
2017-06-27T04:20:16.430Z,940.29
2017-06-27T04:20:44.581Z,940.28
2017-06-27T04:21:12.724Z,940.31
2017-06-27T04:21:40.854Z,940.3
2017-06-27T04:22:08.991Z,940.27
2017-06-27T04:22:37.123Z,940.28
2017-06-27T04:23:05.151Z,940.29
2017-06-27T04:23:33.286Z,940.27
2017-06-27T04:24:01.325Z,940.26
2017-06-27T04:24:29.350Z,940.26
2017-06-27T04:24:57.488Z,940.3
2017-06-27T04:25:25.410Z,940.26
2017-06-27T04:25:53.549Z,940.24
2017-06-27T04:26:21.680Z,940.25
2017-06-27T04:26:49.818Z,940.23
2017-06-27T04:27:17.978Z,940.26
2017-06-27T04:27:46.110Z,940.26
2017-06-27T04:28:14.188Z,940.24
2017-06-27T04:28:42.237Z,940.26
2017-06-27T04:29:10.246Z,940.23
2017-06-27T04:29:38.373Z,940.29
2017-06-27T04:30:06.521Z,940.25
2017-06-27T04:30:34.660Z,940.2
2017-06-27T04:31:02.821Z,940.19
2017-06-27T04:31:30.862Z,940.23
2017-06-27T04:31:59.007Z,940.2
2017-06-27T04:32:27.044Z,940.22
2017-06-27T04:32:55.205Z,940.23
2017-06-27T04:33:23.339Z,940.23
2017-06-27T04:33:51.370Z,940.22
2017-06-27T04:34:19.401Z,940.19
2017-06-27T04:34:47.540Z,940.27
2017-06-27T04:35:15.686Z,940.23
2017-06-27T04:35:43.806Z,940.2
2017-06-27T04:36:11.947Z,940.2
2017-06-27T04:36:40.265Z,940.2
2017-06-27T04:37:08.388Z,940.18
2017-06-27T04:37:36.510Z,940.21
2017-06-27T04:38:04.551Z,940.17
2017-06-27T04:38:32.694Z,940.16
2017-06-27T04:39:00.734Z,940.18
2017-06-27T04:39:28.672Z,940.14
2017-06-27T04:39:56.724Z,940.15
2017-06-27T04:40:24.889Z,940.12
2017-06-27T04:40:53.026Z,940.15
2017-06-27T04:41:21.070Z,940.13
2017-06-27T04:41:49.213Z,940.12
2017-06-27T04:42:17.354Z,940.13
2017-06-27T04:42:45.509Z,940.17
2017-06-27T04:43:13.665Z,940.19
2017-06-27T04:43:41.799Z,940.15
2017-06-27T04:44:09.960Z,940.15
2017-06-27T04:44:38.123Z,940.15
2017-06-27T04:45:06.170Z,940.15
2017-06-27T04:45:34.295Z,940.13
2017-06-27T04:46:02.443Z,940.11
2017-06-27T04:46:30.473Z,940.14
2017-06-27T04:46:58.602Z,940.13
2017-06-27T04:47:26.716Z,940.1
2017-06-27T04:47:54.903Z,940.1
2017-06-27T04:48:23.032Z,940.09
2017-06-27T04:48:51.061Z,940.11
2017-06-27T04:49:19.194Z,940.09
2017-06-27T04:49:47.340Z,940.07
2017-06-27T04:50:15.483Z,940.05
2017-06-27T04:50:43.529Z,940.06
2017-06-27T04:51:11.678Z,940.06
2017-06-27T04:51:39.799Z,940.04
2017-06-27T04:52:07.927Z,940.02
2017-06-27T04:52:36.049Z,940.06
2017-06-27T04:53:04.191Z,939.97
2017-06-27T04:53:32.315Z,940.02
2017-06-27T04:54:00.263Z,939.98
2017-06-27T04:54:28.296Z,939.97
2017-06-27T04:54:56.309Z,939.96
2017-06-27T04:55:24.438Z,939.93
2017-06-27T04:55:52.590Z,939.93
2017-06-27T04:56:20.651Z,939.93
2017-06-27T04:56:48.780Z,939.94
2017-06-27T04:57:16.815Z,939.93
2017-06-27T04:57:44.950Z,939.94
2017-06-27T04:58:12.980Z,939.96
2017-06-27T04:58:41.111Z,939.95
2017-06-27T04:59:09.154Z,939.91
2017-06-27T04:59:37.277Z,939.91
2017-06-27T05:00:05.413Z,939.92
2017-06-27T05:00:33.572Z,939.92
2017-06-27T05:01:01.717Z,939.89
2017-06-27T05:01:29.848Z,939.9
2017-06-27T05:01:57.854Z,939.91
2017-06-27T05:02:25.989Z,939.91
2017-06-27T05:02:54.132Z,939.9
2017-06-27T05:03:22.249Z,939.91
2017-06-27T05:03:50.360Z,939.88
2017-06-27T05:04:18.496Z,939.89
2017-06-27T05:04:46.651Z,939.88
2017-06-27T05:05:14.791Z,939.87
2017-06-27T05:05:42.908Z,939.91
2017-06-27T05:06:11.043Z,939.88
2017-06-27T05:06:39.199Z,939.88
2017-06-27T05:07:07.473Z,939.87
2017-06-27T05:07:35.529Z,939.86
2017-06-27T05:08:03.683Z,939.88
2017-06-27T05:08:31.724Z,939.88
2017-06-27T05:08:59.829Z,939.85
2017-06-27T05:09:27.941Z,939.86
2017-06-27T05:09:56.084Z,939.85
2017-06-27T05:10:24.225Z,939.87
2017-06-27T05:10:52.208Z,939.88
2017-06-27T05:11:20.336Z,939.88
2017-06-27T05:11:48.404Z,939.86
2017-06-27T05:12:16.519Z,939.88
2017-06-27T05:12:44.667Z,939.87
2017-06-27T05:13:12.792Z,939.88
2017-06-27T05:13:40.936Z,939.9
2017-06-27T05:14:09.090Z,939.88
2017-06-27T05:14:37.138Z,939.87
2017-06-27T05:15:05.270Z,939.88
2017-06-27T05:15:33.405Z,939.88
2017-06-27T05:16:01.532Z,939.87
2017-06-27T05:16:29.664Z,939.86
2017-06-27T05:16:57.702Z,939.86
2017-06-27T05:17:25.868Z,939.85
2017-06-27T05:17:53.978Z,939.85
2017-06-27T05:18:22.103Z,939.81
2017-06-27T05:18:50.209Z,939.85
2017-06-27T05:19:18.211Z,939.8
2017-06-27T05:19:46.342Z,939.82
2017-06-27T05:20:14.370Z,939.82
2017-06-27T05:20:42.411Z,939.81
2017-06-27T05:21:10.525Z,939.78
2017-06-27T05:21:38.647Z,939.79
2017-06-27T05:22:06.684Z,939.82
2017-06-27T05:22:34.817Z,939.82
2017-06-27T05:23:02.963Z,939.79
2017-06-27T05:23:31.077Z,939.8
2017-06-27T05:23:59.212Z,939.78
2017-06-27T05:24:27.335Z,939.8
2017-06-27T05:24:55.272Z,939.8
2017-06-27T05:25:23.391Z,939.77
2017-06-27T05:25:51.521Z,939.83
2017-06-27T05:26:19.662Z,939.78
2017-06-27T05:26:47.805Z,939.8
2017-06-27T05:27:15.960Z,939.78
2017-06-27T05:27:44.105Z,939.79
2017-06-27T05:28:12.244Z,939.76
2017-06-27T05:28:40.387Z,939.77
2017-06-27T05:29:08.557Z,939.75
2017-06-27T05:29:36.672Z,939.77
2017-06-27T05:30:04.806Z,939.76
2017-06-27T05:30:32.954Z,939.77
2017-06-27T05:31:01.119Z,939.69
2017-06-27T05:31:29.163Z,939.73
2017-06-27T05:31:57.300Z,939.69
2017-06-27T05:32:25.321Z,939.68
2017-06-27T05:32:53.451Z,939.68
2017-06-27T05:33:21.581Z,939.66
2017-06-27T05:33:49.699Z,939.65
2017-06-27T05:34:17.841Z,939.66
2017-06-27T05:34:45.902Z,939.65
2017-06-27T05:35:13.731Z,939.66
2017-06-27T05:35:41.787Z,939.65
2017-06-27T05:36:09.933Z,939.64
2017-06-27T05:36:38.081Z,939.68
2017-06-27T05:37:06.204Z,939.66
2017-06-27T05:37:34.358Z,939.67
2017-06-27T05:38:02.489Z,939.67
2017-06-27T05:38:30.645Z,939.66
2017-06-27T05:38:58.762Z,939.68
2017-06-27T05:39:26.872Z,939.66
2017-06-27T05:39:55.012Z,939.66
2017-06-27T05:40:23.179Z,939.64
2017-06-27T05:40:51.343Z,939.63
2017-06-27T05:41:19.463Z,939.64
2017-06-27T05:41:47.514Z,939.63
2017-06-27T05:42:15.688Z,939.62
2017-06-27T05:42:43.837Z,939.6
2017-06-27T05:43:11.988Z,939.62
2017-06-27T05:43:40.112Z,939.62
2017-06-27T05:44:08.238Z,939.57
2017-06-27T05:44:36.383Z,939.62
2017-06-27T05:45:04.517Z,939.58
2017-06-27T05:45:32.653Z,939.62
2017-06-27T05:46:00.703Z,939.59
2017-06-27T05:46:28.836Z,939.58
2017-06-27T05:46:56.919Z,939.61
2017-06-27T05:47:24.861Z,939.61
2017-06-27T05:47:52.997Z,939.62
2017-06-27T05:48:21.133Z,939.57
2017-06-27T05:48:49.166Z,939.59
2017-06-27T05:49:17.294Z,939.57
2017-06-27T05:49:45.415Z,939.58
2017-06-27T05:50:13.572Z,939.56
2017-06-27T05:50:41.694Z,939.59
2017-06-27T05:51:09.831Z,939.59
2017-06-27T05:51:37.937Z,939.58
2017-06-27T05:52:06.096Z,939.6